sensor_id;sensor_type;location;lat;lon;timestamp;P1;durP1;ratioP1;P2;durP2;ratioP2
34373;SDS011;20637;55.770;37.592;2023-12-20T00:00:55;1.25;;;0.98;;
34373;SDS011;20637;55.770;37.592;2023-12-20T00:03:21;1.88;;;0.98;;
34373;SDS011;20637;55.770;37.592;2023-12-20T00:05:47;1.27;;;1.00;;
34373;SDS011;20637;55.770;37.592;2023-12-20T00:08:12;3.47;;;0.90;;
34373;SDS011;20637;55.770;37.592;2023-12-20T00:10:38;2.10;;;1.35;;
34373;SDS011;20637;55.770;37.592;2023-12-20T00:13:04;0.93;;;0.82;;
34373;SDS011;20637;55.770;37.592;2023-12-20T00:15:29;1.70;;;1.15;;
34373;SDS011;20637;55.770;37.592;2023-12-20T00:17:55;1.90;;;1.10;;
34373;SDS011;20637;55.770;37.592;2023-12-20T00:20:20;2.75;;;1.40;;
34373;SDS011;20637;55.770;37.592;2023-12-20T00:22:46;1.05;;;0.93;;
34373;SDS011;20637;55.770;37.592;2023-12-20T00:25:11;1.85;;;1.08;;
34373;SDS011;20637;55.770;37.592;2023-12-20T00:27:37;2.88;;;1.02;;
34373;SDS011;20637;55.770;37.592;2023-12-20T00:30:03;1.60;;;1.10;;
34373;SDS011;20637;55.770;37.592;2023-12-20T00:32:29;1.23;;;1.08;;
34373;SDS011;20637;55.770;37.592;2023-12-20T00:34:55;1.92;;;0.85;;
34373;SDS011;20637;55.770;37.592;2023-12-20T00:37:20;3.00;;;1.23;;
34373;SDS011;20637;55.770;37.592;2023-12-20T00:39:47;1.58;;;1.10;;
34373;SDS011;20637;55.770;37.592;2023-12-20T00:42:13;1.98;;;1.42;;
34373;SDS011;20637;55.770;37.592;2023-12-20T00:44:38;2.22;;;1.48;;
34373;SDS011;20637;55.770;37.592;2023-12-20T00:47:04;2.40;;;1.60;;
34373;SDS011;20637;55.770;37.592;2023-12-20T00:49:30;2.05;;;1.55;;
34373;SDS011;20637;55.770;37.592;2023-12-20T00:51:55;2.67;;;1.80;;
34373;SDS011;20637;55.770;37.592;2023-12-20T00:54:21;2.80;;;2.15;;
34373;SDS011;20637;55.770;37.592;2023-12-20T00:56:46;1.90;;;1.48;;
34373;SDS011;20637;55.770;37.592;2023-12-20T00:59:12;2.38;;;1.60;;
34373;SDS011;20637;55.770;37.592;2023-12-20T01:01:37;1.45;;;1.20;;
34373;SDS011;20637;55.770;37.592;2023-12-20T01:04:03;2.08;;;1.65;;
34373;SDS011;20637;55.770;37.592;2023-12-20T01:06:29;3.70;;;1.98;;
34373;SDS011;20637;55.770;37.592;2023-12-20T01:08:54;2.25;;;1.73;;
34373;SDS011;20637;55.770;37.592;2023-12-20T01:11:20;2.65;;;1.73;;
34373;SDS011;20637;55.770;37.592;2023-12-20T01:13:45;2.75;;;1.75;;
34373;SDS011;20637;55.770;37.592;2023-12-20T01:16:11;2.08;;;1.38;;
34373;SDS011;20637;55.770;37.592;2023-12-20T01:18:37;2.47;;;1.60;;
34373;SDS011;20637;55.770;37.592;2023-12-20T01:21:04;2.13;;;1.65;;
34373;SDS011;20637;55.770;37.592;2023-12-20T01:23:30;4.65;;;1.70;;
34373;SDS011;20637;55.770;37.592;2023-12-20T01:25:56;2.40;;;1.45;;
34373;SDS011;20637;55.770;37.592;2023-12-20T01:28:21;3.35;;;1.77;;
34373;SDS011;20637;55.770;37.592;2023-12-20T01:30:47;1.70;;;1.38;;
34373;SDS011;20637;55.770;37.592;2023-12-20T01:33:13;2.55;;;1.48;;
34373;SDS011;20637;55.770;37.592;2023-12-20T01:35:38;2.78;;;1.52;;
34373;SDS011;20637;55.770;37.592;2023-12-20T01:38:04;2.17;;;1.65;;
34373;SDS011;20637;55.770;37.592;2023-12-20T01:40:29;1.95;;;1.50;;
34373;SDS011;20637;55.770;37.592;2023-12-20T01:43:02;2.40;;;1.10;;
34373;SDS011;20637;55.770;37.592;2023-12-20T01:45:37;2.35;;;1.20;;
34373;SDS011;20637;55.770;37.592;2023-12-20T01:48:03;2.88;;;1.38;;
34373;SDS011;20637;55.770;37.592;2023-12-20T01:50:31;1.38;;;1.15;;
34373;SDS011;20637;55.770;37.592;2023-12-20T01:53:00;2.22;;;1.25;;
34373;SDS011;20637;55.770;37.592;2023-12-20T01:55:27;1.60;;;0.90;;
34373;SDS011;20637;55.770;37.592;2023-12-20T01:57:55;1.92;;;1.13;;
34373;SDS011;20637;55.770;37.592;2023-12-20T02:00:21;2.45;;;1.10;;
34373;SDS011;20637;55.770;37.592;2023-12-20T02:02:48;3.90;;;1.42;;
34373;SDS011;20637;55.770;37.592;2023-12-20T02:05:16;3.17;;;1.15;;
34373;SDS011;20637;55.770;37.592;2023-12-20T02:07:42;1.30;;;0.70;;
34373;SDS011;20637;55.770;37.592;2023-12-20T02:10:07;2.50;;;0.85;;
34373;SDS011;20637;55.770;37.592;2023-12-20T02:12:33;2.25;;;1.00;;
34373;SDS011;20637;55.770;37.592;2023-12-20T02:14:59;1.50;;;0.70;;
34373;SDS011;20637;55.770;37.592;2023-12-20T02:17:24;2.95;;;0.80;;
34373;SDS011;20637;55.770;37.592;2023-12-20T02:19:51;1.10;;;1.00;;
34373;SDS011;20637;55.770;37.592;2023-12-20T02:22:16;3.42;;;1.13;;
34373;SDS011;20637;55.770;37.592;2023-12-20T02:24:42;0.80;;;0.45;;
34373;SDS011;20637;55.770;37.592;2023-12-20T02:27:07;1.80;;;0.85;;
34373;SDS011;20637;55.770;37.592;2023-12-20T02:29:33;0.60;;;0.50;;
34373;SDS011;20637;55.770;37.592;2023-12-20T02:32:00;1.10;;;0.60;;
34373;SDS011;20637;55.770;37.592;2023-12-20T02:34:26;3.10;;;1.20;;
34373;SDS011;20637;55.770;37.592;2023-12-20T02:36:51;1.35;;;0.35;;
34373;SDS011;20637;55.770;37.592;2023-12-20T02:39:17;2.78;;;1.00;;
34373;SDS011;20637;55.770;37.592;2023-12-20T02:41:44;1.15;;;0.50;;
34373;SDS011;20637;55.770;37.592;2023-12-20T02:44:10;0.68;;;0.40;;
34373;SDS011;20637;55.770;37.592;2023-12-20T02:46:35;1.67;;;0.60;;
34373;SDS011;20637;55.770;37.592;2023-12-20T02:49:01;0.95;;;0.60;;
34373;SDS011;20637;55.770;37.592;2023-12-20T02:51:26;1.25;;;0.50;;
34373;SDS011;20637;55.770;37.592;2023-12-20T02:53:52;1.02;;;0.75;;
34373;SDS011;20637;55.770;37.592;2023-12-20T02:56:17;1.67;;;0.70;;
34373;SDS011;20637;55.770;37.592;2023-12-20T02:58:43;3.28;;;1.30;;
34373;SDS011;20637;55.770;37.592;2023-12-20T03:01:08;2.63;;;1.13;;
34373;SDS011;20637;55.770;37.592;2023-12-20T03:03:34;2.20;;;1.70;;
34373;SDS011;20637;55.770;37.592;2023-12-20T03:06:00;1.88;;;1.25;;
34373;SDS011;20637;55.770;37.592;2023-12-20T03:08:26;3.63;;;1.95;;
34373;SDS011;20637;55.770;37.592;2023-12-20T03:10:51;2.70;;;1.92;;
34373;SDS011;20637;55.770;37.592;2023-12-20T03:13:18;2.80;;;1.88;;
34373;SDS011;20637;55.770;37.592;2023-12-20T03:15:44;2.20;;;1.63;;
34373;SDS011;20637;55.770;37.592;2023-12-20T03:18:11;3.60;;;2.20;;
34373;SDS011;20637;55.770;37.592;2023-12-20T03:20:36;3.20;;;2.33;;
34373;SDS011;20637;55.770;37.592;2023-12-20T03:23:02;2.65;;;2.20;;
34373;SDS011;20637;55.770;37.592;2023-12-20T03:25:29;3.53;;;2.00;;
34373;SDS011;20637;55.770;37.592;2023-12-20T03:27:54;2.08;;;1.55;;
34373;SDS011;20637;55.770;37.592;2023-12-20T03:30:20;1.65;;;1.17;;
34373;SDS011;20637;55.770;37.592;2023-12-20T03:32:46;1.92;;;1.73;;
34373;SDS011;20637;55.770;37.592;2023-12-20T03:35:12;2.83;;;1.27;;
34373;SDS011;20637;55.770;37.592;2023-12-20T03:37:37;3.53;;;1.70;;
34373;SDS011;20637;55.770;37.592;2023-12-20T03:40:03;3.20;;;1.63;;
34373;SDS011;20637;55.770;37.592;2023-12-20T03:42:29;2.65;;;1.80;;
34373;SDS011;20637;55.770;37.592;2023-12-20T03:44:55;2.45;;;1.85;;
34373;SDS011;20637;55.770;37.592;2023-12-20T03:47:20;3.92;;;2.47;;
34373;SDS011;20637;55.770;37.592;2023-12-20T03:49:46;2.75;;;2.10;;
34373;SDS011;20637;55.770;37.592;2023-12-20T03:52:11;3.17;;;2.38;;
34373;SDS011;20637;55.770;37.592;2023-12-20T03:54:37;3.38;;;2.58;;
34373;SDS011;20637;55.770;37.592;2023-12-20T03:57:03;3.08;;;2.10;;
34373;SDS011;20637;55.770;37.592;2023-12-20T03:59:29;3.17;;;2.00;;
34373;SDS011;20637;55.770;37.592;2023-12-20T04:01:55;4.28;;;2.53;;
34373;SDS011;20637;55.770;37.592;2023-12-20T04:04:20;5.68;;;2.83;;
34373;SDS011;20637;55.770;37.592;2023-12-20T04:06:46;6.20;;;3.58;;
34373;SDS011;20637;55.770;37.592;2023-12-20T04:09:12;3.53;;;2.90;;
34373;SDS011;20637;55.770;37.592;2023-12-20T04:11:38;5.45;;;3.05;;
34373;SDS011;20637;55.770;37.592;2023-12-20T04:14:03;4.40;;;3.15;;
34373;SDS011;20637;55.770;37.592;2023-12-20T04:16:32;5.50;;;3.88;;
34373;SDS011;20637;55.770;37.592;2023-12-20T04:18:58;3.10;;;2.70;;
34373;SDS011;20637;55.770;37.592;2023-12-20T04:21:23;4.90;;;3.30;;
34373;SDS011;20637;55.770;37.592;2023-12-20T04:23:49;3.40;;;2.95;;
34373;SDS011;20637;55.770;37.592;2023-12-20T04:26:15;3.67;;;2.88;;
34373;SDS011;20637;55.770;37.592;2023-12-20T04:28:41;4.10;;;2.97;;
34373;SDS011;20637;55.770;37.592;2023-12-20T04:31:07;7.10;;;4.18;;
34373;SDS011;20637;55.770;37.592;2023-12-20T04:33:32;4.28;;;2.83;;
34373;SDS011;20637;55.770;37.592;2023-12-20T04:35:58;3.53;;;2.88;;
34373;SDS011;20637;55.770;37.592;2023-12-20T04:38:25;4.38;;;2.67;;
34373;SDS011;20637;55.770;37.592;2023-12-20T04:40:50;4.95;;;2.72;;
34373;SDS011;20637;55.770;37.592;2023-12-20T04:43:16;4.63;;;3.05;;
34373;SDS011;20637;55.770;37.592;2023-12-20T04:45:41;4.55;;;2.88;;
34373;SDS011;20637;55.770;37.592;2023-12-20T04:48:07;4.32;;;2.80;;
34373;SDS011;20637;55.770;37.592;2023-12-20T04:50:32;4.00;;;2.50;;
34373;SDS011;20637;55.770;37.592;2023-12-20T04:52:58;4.07;;;3.25;;
34373;SDS011;20637;55.770;37.592;2023-12-20T04:55:23;4.35;;;3.08;;
34373;SDS011;20637;55.770;37.592;2023-12-20T04:57:49;12.95;;;3.70;;
34373;SDS011;20637;55.770;37.592;2023-12-20T05:00:15;4.20;;;3.00;;
34373;SDS011;20637;55.770;37.592;2023-12-20T05:02:40;6.05;;;3.58;;
34373;SDS011;20637;55.770;37.592;2023-12-20T05:05:06;6.78;;;3.50;;
34373;SDS011;20637;55.770;37.592;2023-12-20T05:07:32;8.45;;;3.20;;
34373;SDS011;20637;55.770;37.592;2023-12-20T05:09:58;4.50;;;2.90;;
34373;SDS011;20637;55.770;37.592;2023-12-20T05:12:24;4.80;;;2.33;;
34373;SDS011;20637;55.770;37.592;2023-12-20T05:14:50;5.25;;;2.55;;
34373;SDS011;20637;55.770;37.592;2023-12-20T05:17:17;2.70;;;1.95;;
34373;SDS011;20637;55.770;37.592;2023-12-20T05:19:42;3.95;;;2.10;;
34373;SDS011;20637;55.770;37.592;2023-12-20T05:22:08;4.05;;;2.25;;
34373;SDS011;20637;55.770;37.592;2023-12-20T05:24:34;5.50;;;2.40;;
34373;SDS011;20637;55.770;37.592;2023-12-20T05:26:59;4.03;;;1.80;;
34373;SDS011;20637;55.770;37.592;2023-12-20T05:29:25;2.53;;;2.25;;
34373;SDS011;20637;55.770;37.592;2023-12-20T05:31:50;3.38;;;2.83;;
34373;SDS011;20637;55.770;37.592;2023-12-20T05:34:16;3.83;;;2.67;;
34373;SDS011;20637;55.770;37.592;2023-12-20T05:36:41;5.00;;;2.90;;
34373;SDS011;20637;55.770;37.592;2023-12-20T05:39:07;4.22;;;3.10;;
34373;SDS011;20637;55.770;37.592;2023-12-20T05:41:33;4.22;;;2.65;;
34373;SDS011;20637;55.770;37.592;2023-12-20T05:43:58;3.88;;;2.75;;
34373;SDS011;20637;55.770;37.592;2023-12-20T05:46:24;3.25;;;2.35;;
34373;SDS011;20637;55.770;37.592;2023-12-20T05:48:50;7.95;;;2.97;;
34373;SDS011;20637;55.770;37.592;2023-12-20T05:51:17;4.93;;;3.05;;
34373;SDS011;20637;55.770;37.592;2023-12-20T05:53:43;5.93;;;3.30;;
34373;SDS011;20637;55.770;37.592;2023-12-20T05:56:09;4.78;;;3.15;;
34373;SDS011;20637;55.770;37.592;2023-12-20T05:58:35;3.78;;;2.25;;
34373;SDS011;20637;55.770;37.592;2023-12-20T06:01:04;5.05;;;3.10;;
34373;SDS011;20637;55.770;37.592;2023-12-20T06:03:31;6.10;;;3.30;;
34373;SDS011;20637;55.770;37.592;2023-12-20T06:05:56;3.95;;;2.97;;
34373;SDS011;20637;55.770;37.592;2023-12-20T06:08:22;6.40;;;3.35;;
34373;SDS011;20637;55.770;37.592;2023-12-20T06:10:48;5.10;;;3.10;;
34373;SDS011;20637;55.770;37.592;2023-12-20T06:13:14;3.00;;;2.70;;
34373;SDS011;20637;55.770;37.592;2023-12-20T06:15:39;7.07;;;2.85;;
34373;SDS011;20637;55.770;37.592;2023-12-20T06:18:05;4.57;;;2.88;;
34373;SDS011;20637;55.770;37.592;2023-12-20T06:20:32;4.43;;;3.03;;
34373;SDS011;20637;55.770;37.592;2023-12-20T06:22:58;5.63;;;3.20;;
34373;SDS011;20637;55.770;37.592;2023-12-20T06:25:24;4.13;;;2.80;;
34373;SDS011;20637;55.770;37.592;2023-12-20T06:27:49;5.18;;;3.72;;
34373;SDS011;20637;55.770;37.592;2023-12-20T06:30:15;4.72;;;3.33;;
34373;SDS011;20637;55.770;37.592;2023-12-20T06:32:41;8.02;;;3.63;;
34373;SDS011;20637;55.770;37.592;2023-12-20T06:35:08;5.53;;;3.22;;
34373;SDS011;20637;55.770;37.592;2023-12-20T06:37:34;5.68;;;3.45;;
34373;SDS011;20637;55.770;37.592;2023-12-20T06:40:00;5.47;;;3.47;;
34373;SDS011;20637;55.770;37.592;2023-12-20T06:42:26;4.47;;;2.53;;
34373;SDS011;20637;55.770;37.592;2023-12-20T06:44:52;3.95;;;2.67;;
34373;SDS011;20637;55.770;37.592;2023-12-20T06:47:18;4.20;;;2.85;;
34373;SDS011;20637;55.770;37.592;2023-12-20T06:49:43;3.97;;;2.80;;
34373;SDS011;20637;55.770;37.592;2023-12-20T06:52:09;4.47;;;2.97;;
34373;SDS011;20637;55.770;37.592;2023-12-20T06:54:35;4.32;;;2.47;;
34373;SDS011;20637;55.770;37.592;2023-12-20T06:57:01;4.90;;;2.90;;
34373;SDS011;20637;55.770;37.592;2023-12-20T06:59:28;5.40;;;3.08;;
34373;SDS011;20637;55.770;37.592;2023-12-20T07:01:54;4.80;;;2.85;;
34373;SDS011;20637;55.770;37.592;2023-12-20T07:04:20;3.83;;;2.30;;
34373;SDS011;20637;55.770;37.592;2023-12-20T07:06:47;4.65;;;2.55;;
34373;SDS011;20637;55.770;37.592;2023-12-20T07:09:22;5.57;;;2.35;;
34373;SDS011;20637;55.770;37.592;2023-12-20T07:11:48;2.65;;;1.85;;
34373;SDS011;20637;55.770;37.592;2023-12-20T07:14:14;4.80;;;2.30;;
34373;SDS011;20637;55.770;37.592;2023-12-20T07:16:40;4.32;;;2.28;;
34373;SDS011;20637;55.770;37.592;2023-12-20T07:19:05;5.38;;;2.70;;
34373;SDS011;20637;55.770;37.592;2023-12-20T07:21:31;6.60;;;2.60;;
34373;SDS011;20637;55.770;37.592;2023-12-20T07:23:57;6.50;;;2.90;;
34373;SDS011;20637;55.770;37.592;2023-12-20T07:26:23;5.60;;;2.75;;
34373;SDS011;20637;55.770;37.592;2023-12-20T07:28:48;3.85;;;2.60;;
34373;SDS011;20637;55.770;37.592;2023-12-20T07:31:16;4.22;;;2.90;;
34373;SDS011;20637;55.770;37.592;2023-12-20T07:33:42;7.47;;;3.33;;
34373;SDS011;20637;55.770;37.592;2023-12-20T07:36:07;4.88;;;2.90;;
34373;SDS011;20637;55.770;37.592;2023-12-20T07:38:33;6.47;;;3.90;;
34373;SDS011;20637;55.770;37.592;2023-12-20T07:40:59;4.13;;;2.90;;
34373;SDS011;20637;55.770;37.592;2023-12-20T07:43:25;5.65;;;3.55;;
34373;SDS011;20637;55.770;37.592;2023-12-20T07:45:50;4.80;;;2.90;;
34373;SDS011;20637;55.770;37.592;2023-12-20T07:48:16;5.10;;;2.85;;
34373;SDS011;20637;55.770;37.592;2023-12-20T07:50:41;4.55;;;2.75;;
34373;SDS011;20637;55.770;37.592;2023-12-20T07:53:08;4.63;;;2.78;;
34373;SDS011;20637;55.770;37.592;2023-12-20T07:55:33;4.18;;;2.30;;
34373;SDS011;20637;55.770;37.592;2023-12-20T07:57:59;4.85;;;2.10;;
34373;SDS011;20637;55.770;37.592;2023-12-20T08:00:25;2.75;;;2.30;;
34373;SDS011;20637;55.770;37.592;2023-12-20T08:02:51;4.97;;;2.03;;
34373;SDS011;20637;55.770;37.592;2023-12-20T08:05:17;4.50;;;2.38;;
34373;SDS011;20637;55.770;37.592;2023-12-20T08:07:42;3.40;;;2.30;;
34373;SDS011;20637;55.770;37.592;2023-12-20T08:10:08;2.47;;;1.83;;
34373;SDS011;20637;55.770;37.592;2023-12-20T08:12:34;6.47;;;2.15;;
34373;SDS011;20637;55.770;37.592;2023-12-20T08:14:59;3.90;;;2.03;;
34373;SDS011;20637;55.770;37.592;2023-12-20T08:17:25;3.60;;;2.65;;
34373;SDS011;20637;55.770;37.592;2023-12-20T08:19:51;3.65;;;2.10;;
34373;SDS011;20637;55.770;37.592;2023-12-20T08:22:17;3.75;;;2.40;;
34373;SDS011;20637;55.770;37.592;2023-12-20T08:24:42;2.33;;;2.03;;
34373;SDS011;20637;55.770;37.592;2023-12-20T08:27:08;5.65;;;2.20;;
34373;SDS011;20637;55.770;37.592;2023-12-20T08:29:34;3.50;;;2.10;;
34373;SDS011;20637;55.770;37.592;2023-12-20T08:32:01;4.65;;;2.45;;
34373;SDS011;20637;55.770;37.592;2023-12-20T08:34:27;6.47;;;2.25;;
34373;SDS011;20637;55.770;37.592;2023-12-20T08:36:53;5.18;;;2.35;;
34373;SDS011;20637;55.770;37.592;2023-12-20T08:39:18;3.72;;;2.45;;
34373;SDS011;20637;55.770;37.592;2023-12-20T08:41:44;4.70;;;1.90;;
34373;SDS011;20637;55.770;37.592;2023-12-20T08:44:09;4.20;;;1.90;;
34373;SDS011;20637;55.770;37.592;2023-12-20T08:46:35;3.78;;;2.38;;
34373;SDS011;20637;55.770;37.592;2023-12-20T08:49:01;2.95;;;2.13;;
34373;SDS011;20637;55.770;37.592;2023-12-20T08:51:27;3.38;;;2.20;;
34373;SDS011;20637;55.770;37.592;2023-12-20T08:53:53;3.03;;;2.03;;
34373;SDS011;20637;55.770;37.592;2023-12-20T08:56:19;4.28;;;2.72;;
34373;SDS011;20637;55.770;37.592;2023-12-20T08:58:48;6.28;;;2.80;;
34373;SDS011;20637;55.770;37.592;2023-12-20T09:01:14;6.20;;;2.88;;
34373;SDS011;20637;55.770;37.592;2023-12-20T09:03:40;4.40;;;2.70;;
34373;SDS011;20637;55.770;37.592;2023-12-20T09:06:06;4.20;;;3.80;;
34373;SDS011;20637;55.770;37.592;2023-12-20T09:08:31;5.63;;;2.72;;
34373;SDS011;20637;55.770;37.592;2023-12-20T09:10:57;4.45;;;3.53;;
34373;SDS011;20637;55.770;37.592;2023-12-20T09:13:23;4.32;;;2.63;;
34373;SDS011;20637;55.770;37.592;2023-12-20T09:15:56;5.93;;;2.70;;
34373;SDS011;20637;55.770;37.592;2023-12-20T09:18:22;8.52;;;4.13;;
34373;SDS011;20637;55.770;37.592;2023-12-20T09:20:48;5.25;;;2.65;;
34373;SDS011;20637;55.770;37.592;2023-12-20T09:23:14;6.22;;;3.30;;
34373;SDS011;20637;55.770;37.592;2023-12-20T09:25:40;8.13;;;3.65;;
34373;SDS011;20637;55.770;37.592;2023-12-20T09:28:05;4.90;;;3.08;;
34373;SDS011;20637;55.770;37.592;2023-12-20T09:30:31;5.28;;;3.40;;
34373;SDS011;20637;55.770;37.592;2023-12-20T09:32:57;8.07;;;4.05;;
34373;SDS011;20637;55.770;37.592;2023-12-20T09:35:23;5.32;;;3.90;;
34373;SDS011;20637;55.770;37.592;2023-12-20T09:37:48;6.35;;;3.95;;
34373;SDS011;20637;55.770;37.592;2023-12-20T09:40:14;6.63;;;5.15;;
34373;SDS011;20637;55.770;37.592;2023-12-20T09:45:15;6.20;;;5.22;;
34373;SDS011;20637;55.770;37.592;2023-12-20T09:47:43;6.20;;;4.50;;
34373;SDS011;20637;55.770;37.592;2023-12-20T09:50:10;6.28;;;4.45;;
34373;SDS011;20637;55.770;37.592;2023-12-20T09:52:36;6.47;;;5.22;;
34373;SDS011;20637;55.770;37.592;2023-12-20T09:55:04;3.72;;;3.08;;
34373;SDS011;20637;55.770;37.592;2023-12-20T09:57:33;5.22;;;3.13;;
34373;SDS011;20637;55.770;37.592;2023-12-20T09:59:59;3.45;;;2.80;;
34373;SDS011;20637;55.770;37.592;2023-12-20T10:02:25;5.28;;;2.80;;
34373;SDS011;20637;55.770;37.592;2023-12-20T10:04:54;3.85;;;2.42;;
34373;SDS011;20637;55.770;37.592;2023-12-20T10:07:20;4.65;;;3.45;;
34373;SDS011;20637;55.770;37.592;2023-12-20T10:09:47;4.05;;;2.60;;
34373;SDS011;20637;55.770;37.592;2023-12-20T10:12:14;3.95;;;2.25;;
34373;SDS011;20637;55.770;37.592;2023-12-20T10:14:39;4.55;;;2.42;;
34373;SDS011;20637;55.770;37.592;2023-12-20T10:17:05;2.65;;;2.10;;
34373;SDS011;20637;55.770;37.592;2023-12-20T10:19:34;3.63;;;2.60;;
34373;SDS011;20637;55.770;37.592;2023-12-20T10:22:00;3.60;;;2.60;;
34373;SDS011;20637;55.770;37.592;2023-12-20T10:24:25;3.30;;;2.35;;
34373;SDS011;20637;55.770;37.592;2023-12-20T10:27:06;3.65;;;2.55;;
34373;SDS011;20637;55.770;37.592;2023-12-20T10:29:36;6.00;;;2.05;;
34373;SDS011;20637;55.770;37.592;2023-12-20T10:32:44;2.63;;;2.03;;
34373;SDS011;20637;55.770;37.592;2023-12-20T10:34:52;1.98;;;1.77;;
34373;SDS011;20637;55.770;37.592;2023-12-20T10:37:19;4.40;;;2.38;;
34373;SDS011;20637;55.770;37.592;2023-12-20T10:39:51;3.28;;;1.95;;
34373;SDS011;20637;55.770;37.592;2023-12-20T10:42:21;1.77;;;1.58;;
34373;SDS011;20637;55.770;37.592;2023-12-20T10:44:48;2.80;;;2.25;;
34373;SDS011;20637;55.770;37.592;2023-12-20T10:47:15;3.58;;;1.70;;
34373;SDS011;20637;55.770;37.592;2023-12-20T10:49:42;2.47;;;1.65;;
34373;SDS011;20637;55.770;37.592;2023-12-20T10:52:10;2.30;;;1.63;;
34373;SDS011;20637;55.770;37.592;2023-12-20T10:54:37;2.08;;;1.80;;
34373;SDS011;20637;55.770;37.592;2023-12-20T10:57:03;3.13;;;2.00;;
34373;SDS011;20637;55.770;37.592;2023-12-20T10:59:33;2.55;;;1.70;;
34373;SDS011;20637;55.770;37.592;2023-12-20T11:02:02;3.50;;;1.65;;
34373;SDS011;20637;55.770;37.592;2023-12-20T11:04:47;2.00;;;1.25;;
34373;SDS011;20637;55.770;37.592;2023-12-20T11:09:56;1.70;;;1.40;;
34373;SDS011;20637;55.770;37.592;2023-12-20T11:12:32;2.45;;;1.42;;
34373;SDS011;20637;55.770;37.592;2023-12-20T11:15:05;2.78;;;1.63;;
34373;SDS011;20637;55.770;37.592;2023-12-20T11:17:32;2.10;;;1.48;;
34373;SDS011;20637;55.770;37.592;2023-12-20T11:22:24;2.72;;;1.50;;
34373;SDS011;20637;55.770;37.592;2023-12-20T11:24:54;2.28;;;1.40;;
34373;SDS011;20637;55.770;37.592;2023-12-20T11:27:24;2.90;;;1.83;;
34373;SDS011;20637;55.770;37.592;2023-12-20T11:29:53;2.47;;;1.80;;
34373;SDS011;20637;55.770;37.592;2023-12-20T11:34:50;4.35;;;2.10;;
34373;SDS011;20637;55.770;37.592;2023-12-20T11:37:17;2.97;;;2.10;;
34373;SDS011;20637;55.770;37.592;2023-12-20T11:39:44;4.43;;;1.92;;
34373;SDS011;20637;55.770;37.592;2023-12-20T11:42:10;3.03;;;2.28;;
34373;SDS011;20637;55.770;37.592;2023-12-20T11:44:36;5.28;;;2.78;;
34373;SDS011;20637;55.770;37.592;2023-12-20T11:47:02;2.70;;;1.55;;
34373;SDS011;20637;55.770;37.592;2023-12-20T11:49:29;4.05;;;2.22;;
34373;SDS011;20637;55.770;37.592;2023-12-20T11:51:56;2.28;;;1.27;;
34373;SDS011;20637;55.770;37.592;2023-12-20T11:54:22;3.17;;;1.92;;
34373;SDS011;20637;55.770;37.592;2023-12-20T11:56:48;2.35;;;2.13;;
34373;SDS011;20637;55.770;37.592;2023-12-20T11:59:13;2.60;;;2.10;;
34373;SDS011;20637;55.770;37.592;2023-12-20T12:01:40;2.95;;;1.95;;
34373;SDS011;20637;55.770;37.592;2023-12-20T12:04:12;4.63;;;2.42;;
34373;SDS011;20637;55.770;37.592;2023-12-20T12:06:38;3.35;;;1.90;;
34373;SDS011;20637;55.770;37.592;2023-12-20T12:09:03;4.13;;;2.50;;
34373;SDS011;20637;55.770;37.592;2023-12-20T12:11:29;2.50;;;1.80;;
34373;SDS011;20637;55.770;37.592;2023-12-20T12:13:55;17.73;;;11.55;;
34373;SDS011;20637;55.770;37.592;2023-12-20T12:16:21;3.28;;;2.55;;
34373;SDS011;20637;55.770;37.592;2023-12-20T12:18:54;3.13;;;2.13;;
34373;SDS011;20637;55.770;37.592;2023-12-20T12:21:24;2.20;;;1.63;;
34373;SDS011;20637;55.770;37.592;2023-12-20T12:23:49;11.35;;;3.38;;
34373;SDS011;20637;55.770;37.592;2023-12-20T12:26:15;3.78;;;2.15;;
34373;SDS011;20637;55.770;37.592;2023-12-20T12:28:41;3.90;;;2.45;;
34373;SDS011;20637;55.770;37.592;2023-12-20T12:31:07;5.40;;;2.55;;
34373;SDS011;20637;55.770;37.592;2023-12-20T12:33:34;4.50;;;2.50;;
34373;SDS011;20637;55.770;37.592;2023-12-20T12:36:00;3.40;;;2.40;;
34373;SDS011;20637;55.770;37.592;2023-12-20T12:38:26;4.63;;;2.38;;
34373;SDS011;20637;55.770;37.592;2023-12-20T12:40:53;3.53;;;2.75;;
34373;SDS011;20637;55.770;37.592;2023-12-20T12:43:19;3.88;;;3.40;;
34373;SDS011;20637;55.770;37.592;2023-12-20T12:45:48;5.50;;;4.30;;
34373;SDS011;20637;55.770;37.592;2023-12-20T12:48:14;5.32;;;4.03;;
34373;SDS011;20637;55.770;37.592;2023-12-20T12:50:40;6.63;;;4.50;;
34373;SDS011;20637;55.770;37.592;2023-12-20T12:53:05;3.60;;;3.30;;
34373;SDS011;20637;55.770;37.592;2023-12-20T12:55:31;3.13;;;2.45;;
34373;SDS011;20637;55.770;37.592;2023-12-20T12:57:57;3.13;;;2.70;;
34373;SDS011;20637;55.770;37.592;2023-12-20T13:00:22;3.67;;;2.85;;
34373;SDS011;20637;55.770;37.592;2023-12-20T13:02:49;2.65;;;2.45;;
34373;SDS011;20637;55.770;37.592;2023-12-20T13:05:15;3.13;;;2.38;;
34373;SDS011;20637;55.770;37.592;2023-12-20T13:07:41;3.72;;;2.03;;
34373;SDS011;20637;55.770;37.592;2023-12-20T13:10:10;3.55;;;2.53;;
34373;SDS011;20637;55.770;37.592;2023-12-20T13:12:36;4.28;;;2.28;;
34373;SDS011;20637;55.770;37.592;2023-12-20T13:15:02;4.03;;;2.90;;
34373;SDS011;20637;55.770;37.592;2023-12-20T13:17:29;3.05;;;2.42;;
34373;SDS011;20637;55.770;37.592;2023-12-20T13:19:55;3.53;;;2.47;;
34373;SDS011;20637;55.770;37.592;2023-12-20T13:22:21;3.80;;;2.58;;
34373;SDS011;20637;55.770;37.592;2023-12-20T13:24:46;5.45;;;2.63;;
34373;SDS011;20637;55.770;37.592;2023-12-20T13:27:12;5.13;;;2.08;;
34373;SDS011;20637;55.770;37.592;2023-12-20T13:29:38;2.97;;;2.30;;
34373;SDS011;20637;55.770;37.592;2023-12-20T13:32:04;4.55;;;2.65;;
34373;SDS011;20637;55.770;37.592;2023-12-20T13:34:31;4.53;;;2.30;;
34373;SDS011;20637;55.770;37.592;2023-12-20T13:36:59;2.78;;;2.30;;
34373;SDS011;20637;55.770;37.592;2023-12-20T13:39:29;2.20;;;1.83;;
34373;SDS011;20637;55.770;37.592;2023-12-20T13:41:56;2.00;;;1.80;;
34373;SDS011;20637;55.770;37.592;2023-12-20T13:44:23;3.88;;;2.20;;
34373;SDS011;20637;55.770;37.592;2023-12-20T13:46:49;2.50;;;2.20;;
34373;SDS011;20637;55.770;37.592;2023-12-20T13:49:15;3.40;;;2.00;;
34373;SDS011;20637;55.770;37.592;2023-12-20T13:51:41;2.67;;;1.70;;
34373;SDS011;20637;55.770;37.592;2023-12-20T13:54:07;2.00;;;1.80;;
34373;SDS011;20637;55.770;37.592;2023-12-20T13:56:33;4.55;;;2.17;;
34373;SDS011;20637;55.770;37.592;2023-12-20T13:58:59;7.13;;;3.40;;
34373;SDS011;20637;55.770;37.592;2023-12-20T14:01:25;8.30;;;3.22;;
34373;SDS011;20637;55.770;37.592;2023-12-20T14:03:51;5.20;;;4.10;;
34373;SDS011;20637;55.770;37.592;2023-12-20T14:06:17;5.80;;;3.97;;
34373;SDS011;20637;55.770;37.592;2023-12-20T14:08:43;8.15;;;4.60;;
34373;SDS011;20637;55.770;37.592;2023-12-20T14:11:09;5.63;;;4.00;;
34373;SDS011;20637;55.770;37.592;2023-12-20T14:13:35;4.57;;;2.75;;
34373;SDS011;20637;55.770;37.592;2023-12-20T14:16:01;4.32;;;3.00;;
34373;SDS011;20637;55.770;37.592;2023-12-20T14:18:29;6.75;;;4.38;;
34373;SDS011;20637;55.770;37.592;2023-12-20T14:20:55;4.78;;;3.60;;
34373;SDS011;20637;55.770;37.592;2023-12-20T14:23:21;5.53;;;3.50;;
34373;SDS011;20637;55.770;37.592;2023-12-20T14:25:48;4.63;;;3.42;;
34373;SDS011;20637;55.770;37.592;2023-12-20T14:28:14;6.65;;;3.90;;
34373;SDS011;20637;55.770;37.592;2023-12-20T14:30:40;4.68;;;3.55;;
34373;SDS011;20637;55.770;37.592;2023-12-20T14:33:06;6.05;;;4.07;;
34373;SDS011;20637;55.770;37.592;2023-12-20T14:35:32;5.68;;;4.20;;
34373;SDS011;20637;55.770;37.592;2023-12-20T14:37:58;5.80;;;5.18;;